Time;durP1;ratioP1;P1;durP2;ratioP2;P2;SDS_P1;SDS_P2;PMS_P1;PMS_P2;Temp;Humidity;BMP_temperature;BMP_pressure;BME280_temperature;BME280_humidity;BME280_pressure;Samples;Min_cycle;Max_cycle;Signal;HPM_P1;HPM_P2
2022/05/27 00:00:04;;;;;;;;;;;;;;;21.56;48.25;102016.78;6135394;23;19920;-77
2022/05/27 00:02:30;;;;;;;;;;;;;;;21.57;48.23;102023.72;6131451;23;19909;-77
2022/05/27 00:04:55;;;;;;;;;;;;;;;21.57;48.31;102021.13;6131808;23;19919;-77
2022/05/27 00:07:20;;;;;;;;;;;;;;;21.57;48.22;102021.13;6107081;23;19917;-77
2022/05/27 00:09:46;;;;;;;;;;;;;;;21.58;48.17;102024.63;6106927;23;19968;-77
2022/05/27 00:12:11;;;;;;;;;;;;;;;21.57;48.15;102021.13;6131498;23;19995;-77
2022/05/27 00:14:36;;;;;;;;;;;;;;;21.58;48.23;102022.00;6157933;23;19963;-77
2022/05/27 00:17:02;;;;;;;;;;;;;;;21.58;48.21;102022.00;6131349;23;20344;-83
2022/05/27 00:19:29;;;;;;;;;;;;;;;21.58;48.29;102006.28;6131252;23;20494;-77
2022/05/27 00:21:54;;;;;;;;;;;;;;;21.57;48.14;102007.16;6131885;23;19917;-77
2022/05/27 00:24:21;;;;;;;;;;;;;;;21.58;48.33;102008.91;6106756;23;19921;-77
2022/05/27 00:26:46;;;;;;;;;;;;;;;21.57;48.13;102005.41;6157471;23;19979;-78
2022/05/27 00:29:12;;;;;;;;;;;;;;;21.57;48.16;102005.41;6157615;23;20317;-77
2022/05/27 00:31:37;;;;;;;;;;;;;;;21.56;48.13;102002.81;6157337;23;19908;-77
2022/05/27 00:34:02;;;;;;;;;;;;;;;21.57;48.13;101999.31;6131488;23;19993;-78
2022/05/27 00:36:28;;;;;;;;;;;;;;;21.56;48.09;102000.19;6107361;23;19942;-77
2022/05/27 00:38:54;;;;;;;;;;;;;;;21.56;48.43;102001.06;6157658;23;20348;-77
2022/05/27 00:41:19;;;;;;;;;;;;;;;21.55;48.34;102007.16;6157171;23;19955;-77
2022/05/27 00:43:45;;;;;;;;;;;;;;;21.54;48.11;102004.56;6157560;23;20314;-78
2022/05/27 00:46:25;;;;;;;;;;;;;;;21.55;48.18;102006.28;6157420;23;20433;-78
2022/05/27 00:48:52;;;;;;;;;;;;;;;21.55;48.15;102007.16;6131149;23;19932;-77
2022/05/27 00:51:19;;;;;;;;;;;;;;;21.54;48.26;102008.06;6130975;23;20384;-78
2022/05/27 00:53:56;;;;;;;;;;;;;;;21.53;48.32;102005.44;6157728;23;19909;-77
2022/05/27 00:56:23;;;;;;;;;;;;;;;21.54;48.23;102002.81;6131240;23;19983;-78
2022/05/27 00:58:55;;;;;;;;;;;;;;;21.54;47.94;102005.44;6131152;23;19909;-77
2022/05/27 01:01:20;;;;;;;;;;;;;;;21.53;48.37;102008.91;6157776;23;19908;-77
2022/05/27 01:03:46;;;;;;;;;;;;;;;21.53;48.25;102008.06;6131340;23;19955;-77
2022/05/27 01:06:11;;;;;;;;;;;;;;;21.52;48.18;102011.56;6157297;23;19920;-77
2022/05/27 01:08:37;;;;;;;;;;;;;;;21.52;48.17;102004.56;6157192;23;20363;-77
2022/05/27 01:11:14;;;;;;;;;;;;;;;21.52;48.19;102007.19;6157176;23;19915;-77
2022/05/27 01:14:02;;;;;;;;;;;;;;;21.53;48.18;102002.81;6130717;23;20367;-77
2022/05/27 01:16:27;;;;;;;;;;;;;;;21.52;48.16;102009.81;6155713;23;19912;-76
2022/05/27 01:21:46;;;;;;;;;;;;;;;21.53;48.32;102008.06;6157121;23;19920;-77
2022/05/27 01:24:15;;;;;;;;;;;;;;;21.51;48.41;102004.56;6130701;23;19967;-77
2022/05/27 01:26:52;;;;;;;;;;;;;;;21.52;48.35;102008.94;6131014;23;19913;-77
2022/05/27 01:29:17;;;;;;;;;;;;;;;21.52;48.18;102015.06;6130730;23;19908;-77
2022/05/27 01:31:48;;;;;;;;;;;;;;;21.50;48.13;102008.94;6131068;23;20318;-76
2022/05/27 01:34:19;;;;;;;;;;;;;;;21.50;48.30;102015.94;6131260;23;19912;-76
2022/05/27 01:36:48;;;;;;;;;;;;;;;21.51;48.34;102012.44;6131147;23;19963;-77
2022/05/27 01:39:29;;;;;;;;;;;;;;;21.51;48.12;102009.81;6157352;23;19914;-76
2022/05/27 01:41:57;;;;;;;;;;;;;;;21.51;48.42;102009.81;6157332;23;19909;-77
2022/05/27 01:44:47;;;;;;;;;;;;;;;21.50;48.32;102010.72;6131054;23;20218;-76
2022/05/27 01:47:34;;;;;;;;;;;;;;;21.50;48.17;102013.34;6156796;23;19909;-76
2022/05/27 01:50:12;;;;;;;;;;;;;;;21.50;48.29;102019.44;6156933;23;19975;-76
2022/05/27 01:52:40;;;;;;;;;;;;;;;21.49;48.23;102015.09;6156676;23;20250;-76
2022/05/27 01:55:05;;;;;;;;;;;;;;;21.50;48.11;102010.72;6130504;23;19909;-76
2022/05/27 01:57:39;;;;;;;;;;;;;;;21.50;48.40;102014.19;6156687;23;19920;-77
2022/05/27 02:00:07;;;;;;;;;;;;;;;21.50;48.24;102016.81;6156916;23;19916;-76
2022/05/27 02:02:34;;;;;;;;;;;;;;;21.48;48.11;102010.72;6130443;23;19912;-76
2022/05/27 02:05:05;;;;;;;;;;;;;;;21.48;48.33;102007.22;6156799;23;19915;-76
2022/05/27 02:07:35;;;;;;;;;;;;;;;21.48;48.19;102013.34;6156671;23;19909;-76
2022/05/27 02:10:04;;;;;;;;;;;;;;;21.47;48.16;102011.63;6130981;23;19960;-77
2022/05/27 02:12:33;;;;;;;;;;;;;;;21.48;48.29;102009.84;6132540;23;19909;-76
2022/05/27 02:15:10;;;;;;;;;;;;;;;21.48;48.40;102008.09;6158441;23;20385;-76
2022/05/27 02:17:38;;;;;;;;;;;;;;;21.48;48.23;102008.09;6132398;23;19928;-76
2022/05/27 02:20:12;;;;;;;;;;;;;;;21.48;48.09;102004.63;6158625;23;20317;-77
2022/05/27 02:22:41;;;;;;;;;;;;;;;21.47;48.16;101995.00;6158563;23;19920;-76
2022/05/27 02:25:09;;;;;;;;;;;;;;;21.47;48.16;101995.91;6158455;23;19917;-76
2022/05/27 02:27:36;;;;;;;;;;;;;;;21.47;48.29;101995.91;6157344;23;20222;-76
2022/05/27 02:30:03;;;;;;;;;;;;;;;21.47;48.16;102002.84;6157470;23;19909;-77
2022/05/27 02:32:37;;;;;;;;;;;;;;;21.46;48.30;101998.50;6158739;23;19983;-76
2022/05/27 02:35:12;;;;;;;;;;;;;;;21.46;48.17;101996.75;6158469;23;19960;-76
2022/05/27 02:37:49;;;;;;;;;;;;;;;21.46;48.13;101999.38;6158365;23;19920;-76
2022/05/27 02:40:18;;;;;;;;;;;;;;;21.45;48.24;101991.53;6132492;23;19909;-76
2022/05/27 02:43:10;;;;;;;;;;;;;;;21.44;48.16;101995.91;6158599;23;19962;-76
2022/05/27 02:45:35;;;;;;;;;;;;;;;21.46;48.31;101998.50;6132574;23;19936;-76
2022/05/27 02:48:13;;;;;;;;;;;;;;;21.46;48.43;101994.16;6132428;23;19924;-76
2022/05/27 02:50:49;;;;;;;;;;;;;;;21.46;48.26;102006.38;6158213;23;19959;-76
2022/05/27 02:53:39;;;;;;;;;;;;;;;21.45;48.37;102002.91;6132163;23;19909;-77
2022/05/27 02:56:13;;;;;;;;;;;;;;;21.45;48.33;102000.28;6158560;23;19915;-77
2022/05/27 02:58:38;;;;;;;;;;;;;;;21.45;48.17;102005.50;6132273;23;19919;-77
2022/05/27 03:01:04;;;;;;;;;;;;;;;21.45;48.25;102002.91;6107855;23;19913;-77
2022/05/27 03:03:29;;;;;;;;;;;;;;;21.44;48.11;102001.13;6157942;23;19912;-77
2022/05/27 03:06:13;;;;;;;;;;;;;;;21.43;48.22;101999.41;6132344;23;20249;-77
2022/05/27 03:08:57;;;;;;;;;;;;;;;21.43;48.17;101993.31;6158073;23;19908;-77
2022/05/27 03:11:32;;;;;;;;;;;;;;;21.43;48.19;101999.41;6158643;23;19935;-77
2022/05/27 03:14:20;;;;;;;;;;;;;;;21.43;48.16;102001.16;6158048;23;19912;-77
2022/05/27 03:17:04;;;;;;;;;;;;;;;21.44;48.23;102002.91;6131673;23;19963;-77
2022/05/27 03:19:39;;;;;;;;;;;;;;;21.43;48.16;101998.56;6131882;23;19916;-77
2022/05/27 03:22:30;;;;;;;;;;;;;;;21.42;48.18;102002.91;6158109;23;19908;-78
2022/05/27 03:24:58;;;;;;;;;;;;;;;21.43;48.34;101999.41;6123403;23;19916;-77
2022/05/27 03:27:43;;;;;;;;;;;;;;;21.42;48.23;102002.03;6131819;23;19909;-77
2022/05/27 03:30:28;;;;;;;;;;;;;;;21.43;48.12;102003.78;6131697;23;20321;-77
2022/05/27 03:33:03;;;;;;;;;;;;;;;21.42;48.19;102007.28;6116293;23;20322;-77
2022/05/27 03:35:32;;;;;;;;;;;;;;;21.42;48.30;102018.59;6132051;23;20266;-77
2022/05/27 03:38:10;;;;;;;;;;;;;;;21.42;48.34;102013.38;6157847;23;19944;-77
2022/05/27 03:40:38;;;;;;;;;;;;;;;21.42;48.19;102007.28;6157966;23;19951;-76
2022/05/27 03:43:04;;;;;;;;;;;;;;;21.41;48.29;102006.41;6157643;23;19908;-77
2022/05/27 03:45:30;;;;;;;;;;;;;;;21.42;48.08;101999.41;6157974;23;19959;-77
2022/05/27 03:47:55;;;;;;;;;;;;;;;21.41;48.13;102001.19;6131826;23;19908;-76
2022/05/27 03:50:25;;;;;;;;;;;;;;;21.40;48.39;102002.00;6157894;23;19909;-76
2022/05/27 03:52:52;;;;;;;;;;;;;;;21.41;48.18;102002.91;6131725;23;19974;-76
2022/05/27 03:55:20;;;;;;;;;;;;;;;21.41;48.17;102005.50;6158144;23;19912;-76
2022/05/27 03:57:45;;;;;;;;;;;;;;;21.41;48.10;102010.75;6131530;23;19913;-76
2022/05/27 04:00:11;;;;;;;;;;;;;;;21.41;48.14;102011.66;6158267;23;19913;-76
2022/05/27 04:02:36;;;;;;;;;;;;;;;21.41;48.05;102005.50;6131534;23;20281;-76
2022/05/27 04:05:03;;;;;;;;;;;;;;;21.41;48.07;102009.03;6131612;23;19935;-76
2022/05/27 04:07:29;;;;;;;;;;;;;;;21.41;48.14;102005.50;6131978;23;19913;-77
2022/05/27 04:09:54;;;;;;;;;;;;;;;21.41;48.09;102008.13;6158178;23;20352;-78
2022/05/27 04:12:20;;;;;;;;;;;;;;;21.39;48.12;102005.50;6133310;23;20019;-75
2022/05/27 04:14:48;;;;;;;;;;;;;;;21.40;48.18;102012.47;6157773;23;19908;-78
2022/05/27 04:17:32;;;;;;;;;;;;;;;21.40;48.04;102017.72;6131505;23;19920;-78
2022/05/27 04:19:58;;;;;;;;;;;;;;;21.41;48.16;102016.88;6131414;23;20041;-78
2022/05/27 04:22:24;;;;;;;;;;;;;;;21.41;48.11;102013.38;6131377;23;19909;-78
2022/05/27 04:24:49;;;;;;;;;;;;;;;21.41;48.31;102018.59;6131128;23;20236;-77
2022/05/27 04:27:16;;;;;;;;;;;;;;;21.41;48.27;102016.00;6131345;23;19909;-77
2022/05/27 04:29:43;;;;;;;;;;;;;;;21.41;48.04;102029.09;6131650;23;19943;-77
2022/05/27 04:32:09;;;;;;;;;;;;;;;21.40;48.06;102028.19;6157223;23;20330;-78
2022/05/27 04:34:34;;;;;;;;;;;;;;;21.41;48.11;102027.34;6157333;23;19916;-77
2022/05/27 04:36:59;;;;;;;;;;;;;;;21.42;48.24;102029.09;6131213;23;20494;-77
2022/05/27 04:39:25;;;;;;;;;;;;;;;21.42;47.98;102033.47;6131161;23;19912;-76
2022/05/27 04:41:53;;;;;;;;;;;;;;;21.42;48.03;102033.47;6157445;23;19909;-76
2022/05/27 04:44:18;;;;;;;;;;;;;;;21.43;48.02;102035.22;6157318;23;19913;-77
2022/05/27 04:46:45;;;;;;;;;;;;;;;21.42;47.94;102033.47;6131262;23;19979;-77
2022/05/27 04:49:50;;;;;;;;;;;;;;;21.43;47.94;102022.13;6131357;23;19915;-78
2022/05/27 04:51:56;;;;;;;;;;;;;;;21.44;48.01;102034.31;6156635;23;19915;-79
2022/05/27 04:54:21;;;;;;;;;;;;;;;21.44;47.82;102036.94;6130922;23;19912;-78
2022/05/27 04:56:46;;;;;;;;;;;;;;;21.44;47.96;102034.31;6157208;23;19923;-78
2022/05/27 04:59:11;;;;;;;;;;;;;;;21.44;47.87;102035.19;6131296;23;19940;-78
2022/05/27 05:01:36;;;;;;;;;;;;;;;21.44;47.96;102045.66;6106767;23;19917;-78
2022/05/27 05:04:02;;;;;;;;;;;;;;;21.44;47.78;102050.03;6130937;23;19963;-78
2022/05/27 05:06:27;;;;;;;;;;;;;;;21.45;47.86;102047.41;6131197;23;19913;-78
2022/05/27 05:08:52;;;;;;;;;;;;;;;21.45;47.74;102039.56;6106641;23;20340;-78
2022/05/27 05:11:18;;;;;;;;;;;;;;;21.46;47.84;102038.66;6130927;23;20245;-77
2022/05/27 05:13:43;;;;;;;;;;;;;;;21.47;47.88;102052.63;6131310;23;20014;-77
2022/05/27 05:16:09;;;;;;;;;;;;;;;21.47;47.71;102050.91;6130835;23;19951;-78
2022/05/27 05:18:34;;;;;;;;;;;;;;;21.47;47.93;102050.91;6130625;23;19916;-78
2022/05/27 05:20:59;;;;;;;;;;;;;;;21.47;47.58;102053.50;6131038;23;19912;-77
2022/05/27 05:23:24;;;;;;;;;;;;;;;21.48;47.62;102054.38;6157023;23;20384;-77
2022/05/27 05:25:50;;;;;;;;;;;;;;;21.48;47.58;102057.00;6130939;23;19987;-78
2022/05/27 05:28:15;;;;;;;;;;;;;;;21.50;47.81;102063.09;6106956;23;19951;-77
2022/05/27 05:30:40;;;;;;;;;;;;;;;21.51;47.71;102059.56;6131053;23;19919;-76
2022/05/27 05:33:05;;;;;;;;;;;;;;;21.52;47.66;102064.81;6157244;23;19983;-77
2022/05/27 05:35:31;;;;;;;;;;;;;;;21.54;47.53;102062.19;6131115;23;19976;-77
2022/05/27 05:37:57;;;;;;;;;;;;;;;21.54;47.78;102067.44;6131354;23;19924;-82
2022/05/27 05:40:22;;;;;;;;;;;;;;;21.54;47.32;102070.91;6132189;23;19917;-85
2022/05/27 05:42:47;;;;;;;;;;;;;;;21.54;47.24;102068.28;6131433;23;19963;-81
2022/05/27 05:45:14;;;;;;;;;;;;;;;21.45;45.87;102070.97;6107864;23;19920;-86
2022/05/27 05:47:39;;;;;;;;;;;;;;;21.31;43.66;102076.25;6131375;23;19987;-81
2022/05/27 05:50:05;;;;;;;;;;;;;;;21.37;45.88;102085.84;6133970;23;19913;-84
2022/05/27 05:52:30;;;;;;;;;;;;;;;21.42;45.99;102081.47;6110114;23;19913;-86
2022/05/27 05:54:56;;;;;;;;;;;;;;;21.44;46.11;102084.06;6133489;23;19920;-85
2022/05/27 05:57:41;;;;;;;;;;;;;;;21.48;46.21;102080.56;6133256;23;19913;-87
2022/05/27 06:00:06;;;;;;;;;;;;;;;;;;6130805;23;20384;-85
2022/05/27 06:02:32;;;;;;;;;;;;;;;21.51;47.07;102083.16;6158081;23;19908;-84
2022/05/27 06:04:57;;;;;;;;;;;;;;;21.52;46.96;102092.75;6132042;23;20313;-84
2022/05/27 06:07:22;;;;;;;;;;;;;;;21.51;46.85;102093.63;6131230;23;19988;-84
2022/05/27 06:09:48;;;;;;;;;;;;;;;21.48;46.95;102086.66;6130793;23;20245;-84
2022/05/27 06:12:15;;;;;;;;;;;;;;;21.48;46.34;102093.66;6107494;23;20234;-84
2022/05/27 06:14:40;;;;;;;;;;;;;;;21.47;46.36;102103.28;6157386;23;20289;-84
2022/05/27 06:17:06;;;;;;;;;;;;;;;21.47;46.17;102097.13;6131020;23;19912;-84
2022/05/27 06:19:31;;;;;;;;;;;;;;;21.47;46.11;102099.75;6157233;23;19995;-83
2022/05/27 06:21:56;;;;;;;;;;;;;;;21.45;46.05;102110.25;6131055;23;19917;-82
2022/05/27 06:24:21;;;;;;;;;;;;;;;21.43;46.16;102112.03;6155062;23;19917;-83
2022/05/27 06:26:47;;;;;;;;;;;;;;;21.44;45.95;102111.13;6106529;23;20330;-83
2022/05/27 06:34:40;;;;;;;;;;;;;;;21.45;45.20;102110.25;6135132;23;19928;-81
2022/05/27 06:37:08;;;;;;;;;;;;;;;21.46;44.21;102116.38;6106618;23;20272;-83
2022/05/27 06:39:34;;;;;;;;;;;;;;;21.45;44.52;102119.84;6131517;23;20318;-82
2022/05/27 06:42:00;;;;;;;;;;;;;;;21.45;44.43;102125.09;6131097;23;19954;-83
2022/05/27 06:44:25;;;;;;;;;;;;;;;21.44;44.17;102118.13;6157019;23;19949;-83
2022/05/27 06:46:52;;;;;;;;;;;;;;;21.44;43.82;102121.59;6130885;23;19912;-83
2022/05/27 06:49:17;;;;;;;;;;;;;;;21.49;43.77;102119.84;6106751;23;19913;-83
2022/05/27 06:51:43;;;;;;;;;;;;;;;21.47;44.02;102124.22;6106280;23;19912;-80
2022/05/27 06:54:09;;;;;;;;;;;;;;;21.47;43.77;102132.09;6130464;23;19912;-80
2022/05/27 06:56:35;;;;;;;;;;;;;;;21.45;43.79;102132.94;6132031;23;19913;-82
2022/05/27 06:59:04;;;;;;;;;;;;;;;21.44;43.70;102139.06;6158404;23;20253;-82
2022/05/27 07:01:29;;;;;;;;;;;;;;;21.43;43.82;102138.22;6108526;23;19994;-80
2022/05/27 07:03:54;;;;;;;;;;;;;;;21.44;43.48;102142.56;6132470;23;19913;-81
2022/05/27 07:06:20;;;;;;;;;;;;;;;21.43;43.04;102146.06;6158583;23;19916;-81
2022/05/27 07:08:46;;;;;;;;;;;;;;;21.45;42.95;102144.31;6132257;23;19996;-81
2022/05/27 07:11:11;;;;;;;;;;;;;;;21.49;42.81;102143.41;6132620;23;20270;-82
2022/05/27 07:13:36;;;;;;;;;;;;;;;21.55;42.85;102150.34;6158496;23;20326;-81
2022/05/27 07:16:04;;;;;;;;;;;;;;;21.60;42.19;102143.38;6132977;23;19920;-82
2022/05/27 07:18:30;;;;;;;;;;;;;;;21.61;42.39;102142.47;6108385;23;20330;-82
2022/05/27 07:20:59;;;;;;;;;;;;;;;21.61;42.46;102144.22;6158378;23;19915;-81
2022/05/27 07:23:24;;;;;;;;;;;;;;;21.56;41.82;102145.13;6107766;23;20322;-82
2022/05/27 07:25:49;;;;;;;;;;;;;;;21.58;41.48;102145.13;6107300;23;19921;-82
2022/05/27 07:28:15;;;;;;;;;;;;;;;21.55;41.72;102148.59;6107698;23;19913;-81
2022/05/27 07:30:40;;;;;;;;;;;;;;;21.51;41.56;102152.13;6107575;23;19913;-82
2022/05/27 07:33:05;;;;;;;;;;;;;;;21.54;41.36;102157.34;6132754;23;19996;-82
2022/05/27 07:35:33;;;;;;;;;;;;;;;21.54;41.27;102148.63;6132101;23;19913;-80
2022/05/27 07:37:58;;;;;;;;;;;;;;;21.54;41.24;102157.34;6107451;23;19916;-80
2022/05/27 07:40:30;;;;;;;;;;;;;;;21.55;40.79;102153.84;6112127;23;20333;-78
2022/05/27 07:42:55;;;;;;;;;;;;;;;21.59;40.87;102157.31;6138938;23;19912;-78
2022/05/27 07:45:26;;;;;;;;;;;;;;;21.57;40.98;102165.19;6114882;23;19912;-80
2022/05/27 07:47:51;;;;;;;;;;;;;;;21.54;40.63;102167.81;6140437;23;19920;-78
2022/05/27 07:50:17;;;;;;;;;;;;;;;21.51;40.95;102164.34;6137324;23;19909;-77
2022/05/27 07:52:42;;;;;;;;;;;;;;;21.51;40.83;102157.38;6165957;23;19912;-78
2022/05/27 07:55:08;;;;;;;;;;;;;;;21.54;40.39;102162.59;6144686;23;19916;-78
2022/05/27 07:57:33;;;;;;;;;;;;;;;21.52;40.52;102161.72;6117251;23;20242;-79
2022/05/27 08:00:09;;;;;;;;;;;;;;;21.51;40.73;102153.88;6165261;23;19917;-78
2022/05/27 08:02:34;;;;;;;;;;;;;;;21.48;40.69;102161.75;6165351;23;19938;-78
2022/05/27 08:04:59;;;;;;;;;;;;;;;21.47;40.24;102167.84;6138561;23;19913;-78
2022/05/27 08:07:26;;;;;;;;;;;;;;;21.50;40.67;102162.63;6137684;23;20352;-78
2022/05/27 08:09:51;;;;;;;;;;;;;;;21.51;40.58;102169.59;6138116;23;19913;-79
2022/05/27 08:12:17;;;;;;;;;;;;;;;21.52;40.12;102168.72;6138898;23;20277;-77
2022/05/27 08:14:42;;;;;;;;;;;;;;;21.55;40.35;102172.16;6138018;23;19963;-77
2022/05/27 08:17:08;;;;;;;;;;;;;;;21.51;40.18;102175.72;6114170;23;19917;-78
2022/05/27 08:19:33;;;;;;;;;;;;;;;21.57;39.94;102173.03;6162911;23;19909;-77
2022/05/27 08:21:58;;;;;;;;;;;;;;;21.60;39.70;102174.78;6140919;23;19912;-78
2022/05/27 08:24:24;;;;;;;;;;;;;;;21.64;39.74;102183.50;6113542;23;20000;-77
2022/05/27 08:26:49;;;;;;;;;;;;;;;21.68;39.80;102180.84;6114337;23;19935;-77
2022/05/27 08:29:15;;;;;;;;;;;;;;;21.67;39.44;102178.25;6139808;23;20380;-78
2022/05/27 08:31:40;;;;;;;;;;;;;;;21.68;39.14;102193.06;6138919;23;19909;-76
2022/05/27 08:39:35;;;;;;;;;;;;;;;21.72;39.49;102192.19;6163484;23;19931;-80
2022/05/27 08:42:07;;;;;;;;;;;;;;;21.89;40.02;102202.56;6138539;23;19957;-80
2022/05/27 08:44:33;;;;;;;;;;;;;;;21.86;39.54;102194.72;6173190;23;19909;-80
2022/05/27 08:47:09;;;;;;;;;;;;;;;21.70;39.25;102202.66;6145886;23;19940;-80
2022/05/27 08:49:38;;;;;;;;;;;;;;;21.66;39.10;102202.69;6144237;23;19909;-80
2022/05/27 08:54:46;;;;;;;;;;;;;;;21.63;39.53;102221.06;6173215;23;19920;-79
2022/05/27 08:59:59;;;;;;;;;;;;;;;21.66;39.51;102221.91;6145865;23;19955;-78
2022/05/27 09:02:29;;;;;;;;;;;;;;;21.67;39.51;102230.66;6142145;23;19909;-78
2022/05/27 09:05:01;;;;;;;;;;;;;;;21.68;39.60;102224.50;6143842;23;19932;-77
2022/05/27 09:07:46;;;;;;;;;;;;;;;21.61;39.55;102228.91;6168788;23;19936;-78
2022/05/27 09:10:26;;;;;;;;;;;;;;;21.63;39.63;102223.69;6164638;23;19959;-78
2022/05/27 09:12:57;;;;;;;;;;;;;;;21.62;39.78;102224.53;6138472;23;19936;-78
2022/05/27 09:15:26;;;;;;;;;;;;;;;21.65;39.73;102235.03;6134466;23;19909;-77
2022/05/27 09:18:12;;;;;;;;;;;;;;;21.65;39.93;102232.41;6163042;23;19912;-78
2022/05/27 09:20:55;;;;;;;;;;;;;;;21.68;39.94;102237.63;6161557;23;19992;-78
2022/05/27 09:23:39;;;;;;;;;;;;;;;21.66;40.17;102244.59;6144637;23;19912;-78
2022/05/27 09:26:05;;;;;;;;;;;;;;;21.67;40.17;102235.88;6148389;23;19963;-79
2022/05/27 09:28:36;;;;;;;;;;;;;;;21.69;40.00;102234.13;6149431;23;19912;-79
2022/05/27 09:31:04;;;;;;;;;;;;;;;21.72;40.20;102229.72;6148598;23;19904;-78
2022/05/27 09:33:30;;;;;;;;;;;;;;;21.70;40.29;102238.47;6170147;23;19909;-78
2022/05/27 09:35:56;;;;;;;;;;;;;;;21.70;40.41;102241.97;6117008;23;19913;-78
2022/05/27 09:38:27;;;;;;;;;;;;;;;21.66;40.42;102236.75;6138172;23;19912;-78
2022/05/27 09:40:53;;;;;;;;;;;;;;;21.69;40.58;102244.63;6164220;23;19932;-78
2022/05/27 09:43:22;;;;;;;;;;;;;;;21.69;40.44;102244.63;6137766;23;19908;-78
2022/05/27 09:45:53;;;;;;;;;;;;;;;21.67;40.40;102247.22;6137525;23;19995;-78
2022/05/27 09:48:18;;;;;;;;;;;;;;;21.70;40.45;102248.97;6137724;23;19909;-77
2022/05/27 09:50:45;;;;;;;;;;;;;;;21.70;40.64;102252.44;6114533;23;20383;-77
2022/05/27 09:53:14;;;;;;;;;;;;;;;21.68;40.48;102256.81;6136695;23;19921;-77
2022/05/27 09:55:48;;;;;;;;;;;;;;;21.66;40.53;102248.09;6136851;23;19909;-78
2022/05/27 09:58:21;;;;;;;;;;;;;;;21.63;40.52;102248.13;6135166;23;19920;-77
2022/05/27 10:00:49;;;;;;;;;;;;;;;21.65;40.44;102248.13;6135277;23;19932;-77
2022/05/27 10:03:25;;;;;;;;;;;;;;;21.66;40.40;102260.31;6136135;23;19992;-77
2022/05/27 10:05:58;;;;;;;;;;;;;;;21.63;40.49;102250.75;6160379;23;19910;-78
2022/05/27 10:08:46;;;;;;;;;;;;;;;21.67;40.53;102262.94;6135114;23;19915;-77
2022/05/27 10:11:19;;;;;;;;;;;;;;;21.64;40.62;102262.06;6127208;23;19952;-77
2022/05/27 10:13:46;;;;;;;;;;;;;;;21.62;40.66;102259.47;6163770;23;19908;-76
2022/05/27 10:16:13;;;;;;;;;;;;;;;21.59;40.41;102254.25;6118316;23;19999;-78
2022/05/27 10:18:40;;;;;;;;;;;;;;;21.60;40.49;102252.50;6165015;23;19913;-78
2022/05/27 10:21:12;;;;;;;;;;;;;;;21.60;40.49;102263.88;6163301;23;20340;-78
2022/05/27 10:23:39;;;;;;;;;;;;;;;21.60;40.64;102260.34;6163664;23;19923;-78
2022/05/27 10:26:23;;;;;;;;;;;;;;;21.58;40.44;102263.00;6163016;23;19959;-77
2022/05/27 10:29:21;;;;;;;;;;;;;;;21.59;40.57;102259.47;6139193;23;19932;-78
2022/05/27 10:31:53;;;;;;;;;;;;;;;21.61;40.51;102269.97;6134811;23;19916;-78
2022/05/27 10:34:37;;;;;;;;;;;;;;;21.60;40.53;102261.25;6144788;23;19919;-78
2022/05/27 10:37:05;;;;;;;;;;;;;;;21.59;40.34;102272.59;6168387;23;19912;-78
2022/05/27 10:39:50;;;;;;;;;;;;;;;21.54;40.18;102267.34;6141790;23;20087;-78
2022/05/27 10:42:28;;;;;;;;;;;;;;;21.53;40.22;102272.59;6139176;23;20285;-78
2022/05/27 10:45:12;;;;;;;;;;;;;;;21.50;39.94;102270.88;6165665;23;19909;-77
2022/05/27 10:47:51;;;;;;;;;;;;;;;21.51;39.89;102277.88;6138540;23;19908;-78
2022/05/27 10:50:35;;;;;;;;;;;;;;;21.53;39.68;102277.84;6138576;23;19915;-78
2022/05/27 10:53:10;;;;;;;;;;;;;;;21.61;40.03;102280.44;6140448;23;19923;-78
2022/05/27 10:55:57;;;;;;;;;;;;;;;21.63;39.89;102286.56;6138407;23;19955;-77
2022/05/27 11:04:22;;;;;;;;;;;;;;;21.40;37.62;102295.28;6161947;23;19999;-76
2022/05/27 11:07:02;;;;;;;;;;;;;;;21.43;37.86;102294.47;6135642;23;19912;-74
2022/05/27 11:09:33;;;;;;;;;;;;;;;21.44;37.98;102301.44;6160900;23;19958;-74
2022/05/27 11:12:01;;;;;;;;;;;;;;;21.45;38.45;102292.69;6134956;23;19909;-74
2022/05/27 11:17:29;;;;;;;;;;;;;;;21.47;38.63;102299.69;6159616;23;19919;-75
2022/05/27 11:19:54;;;;;;;;;;;;;;;;;;6133697;23;19908;-75
2022/05/27 11:22:19;;;;;;;;;;;;;;;;;;6160290;23;19908;-75
2022/05/27 11:24:52;;;;;;;;;;;;;;;21.50;38.75;102304.06;6161607;23;19917;-75
2022/05/27 11:27:36;;;;;;;;;;;;;;;21.51;38.88;102311.00;6135144;23;19940;-75
2022/05/27 11:30:08;;;;;;;;;;;;;;;21.51;39.08;102311.91;6135804;23;19913;-75
2022/05/27 11:32:52;;;;;;;;;;;;;;;21.51;39.03;102314.53;6161170;23;19908;-75
2022/05/27 11:35:27;;;;;;;;;;;;;;;21.51;39.09;102318.88;6136390;23;19909;-75
2022/05/27 11:38:04;;;;;;;;;;;;;;;21.52;39.31;102315.41;6162994;23;20309;-76
2022/05/27 11:40:32;;;;;;;;;;;;;;;21.51;39.28;102313.63;6135754;23;19908;-75
2022/05/27 11:43:09;;;;;;;;;;;;;;;21.51;39.33;102308.41;6161771;23;20309;-75
2022/05/27 11:45:35;;;;;;;;;;;;;;;21.52;39.38;102316.25;6135219;23;19915;-75
2022/05/27 11:48:03;;;;;;;;;;;;;;;21.53;39.51;102328.47;6135390;23;19917;-75
2022/05/27 11:50:41;;;;;;;;;;;;;;;21.54;39.78;102313.66;6140300;23;19912;-76
2022/05/27 11:53:16;;;;;;;;;;;;;;;21.54;39.78;102318.88;6141372;23;19917;-76
2022/05/27 11:55:53;;;;;;;;;;;;;;;21.55;39.95;102318.84;6137668;23;19987;-76
2022/05/27 11:58:45;;;;;;;;;;;;;;;21.55;40.20;102318.84;6164379;23;19912;-76
2022/05/27 12:01:26;;;;;;;;;;;;;;;21.56;39.91;102317.13;6141827;23;19932;-77
2022/05/27 12:03:51;;;;;;;;;;;;;;;21.57;40.11;102324.09;6138864;23;19909;-76
2022/05/27 12:06:18;;;;;;;;;;;;;;;21.56;40.06;102333.72;6166024;23;19915;-76
2022/05/27 12:08:50;;;;;;;;;;;;;;;21.56;39.84;102338.97;6165837;23;19908;-75
2022/05/27 12:11:22;;;;;;;;;;;;;;;21.55;39.89;102328.47;6139436;23;19912;-76
2022/05/27 12:14:08;;;;;;;;;;;;;;;21.56;40.13;102346.81;6138995;23;19936;-76
2022/05/27 12:16:42;;;;;;;;;;;;;;;21.56;40.02;102327.63;6153208;23;20269;-76
2022/05/27 12:19:07;;;;;;;;;;;;;;;21.57;40.06;102335.44;6115315;23;19916;-76
2022/05/27 12:21:43;;;;;;;;;;;;;;;21.57;40.11;102335.44;6165049;23;19990;-76
2022/05/27 12:24:11;;;;;;;;;;;;;;;21.59;40.21;102330.22;6137022;23;19909;-76
2022/05/27 12:26:37;;;;;;;;;;;;;;;21.60;40.14;102347.69;6165802;23;19908;-76
2022/05/27 12:29:05;;;;;;;;;;;;;;;21.59;40.11;102343.31;6114792;23;19987;-76
2022/05/27 12:31:31;;;;;;;;;;;;;;;21.60;40.27;102344.16;6138972;23;19912;-76
2022/05/27 12:33:56;;;;;;;;;;;;;;;21.59;40.25;102343.31;6139054;23;19919;-76
2022/05/27 12:36:24;;;;;;;;;;;;;;;21.60;40.28;102344.16;6163637;23;19909;-76
2022/05/27 12:38:52;;;;;;;;;;;;;;;21.59;40.20;102347.69;6164787;23;19913;-76
2022/05/27 12:41:37;;;;;;;;;;;;;;;21.59;40.23;102352.91;6135889;23;19963;-76
2022/05/27 12:44:09;;;;;;;;;;;;;;;21.58;40.10;102349.44;6134551;23;19916;-76
2022/05/27 12:46:45;;;;;;;;;;;;;;;21.59;40.14;102351.16;6159606;23;20008;-76
2022/05/27 12:49:19;;;;;;;;;;;;;;;21.60;40.55;102347.69;6158996;23;20285;-76
2022/05/27 12:51:45;;;;;;;;;;;;;;;21.60;40.67;102350.31;6159375;23;19908;-76
2022/05/27 12:54:10;;;;;;;;;;;;;;;21.63;40.46;102350.28;6133203;23;19920;-76
2022/05/27 13:02:14;;;;;;;;;;;;;;;21.63;40.60;102366.00;6159071;23;19915;-76
2022/05/27 13:04:44;;;;;;;;;;;;;;;21.65;40.51;102363.41;6133279;23;19909;-75
2022/05/27 13:07:11;;;;;;;;;;;;;;;21.63;40.46;102365.13;6133919;23;19916;-76
2022/05/27 13:09:38;;;;;;;;;;;;;;;21.63;40.38;102367.75;6135519;23;19912;-75
2022/05/27 13:12:04;;;;;;;;;;;;;;;21.64;40.59;102367.75;6165312;23;19909;-75
2022/05/27 13:14:38;;;;;;;;;;;;;;;21.65;40.63;102366.88;6138965;23;19919;-76
2022/05/27 13:17:09;;;;;;;;;;;;;;;21.67;40.68;102369.50;6161634;23;20005;-76
2022/05/27 13:19:42;;;;;;;;;;;;;;;21.68;40.93;102363.38;6133336;23;20297;-75
2022/05/27 13:22:13;;;;;;;;;;;;;;;21.69;40.92;102367.75;6159773;23;19991;-75
2022/05/27 13:24:42;;;;;;;;;;;;;;;21.71;41.38;102358.09;6133177;23;19925;-75